Time;durP1;ratioP1;P1;durP2;ratioP2;P2;SDS_P1;SDS_P2;PMS_P1;PMS_P2;Temp;Humidity;BMP_temperature;BMP_pressure;BME280_temperature;BME280_humidity;BME280_pressure;Samples;Min_cycle;Max_cycle;Signal;HPM_P1;HPM_P2
2021/09/27 00:01:31;;;;;;;7.30;5.68;;;;;;;18.48;67.96;101553.91;5013743;27;102542;-53
2021/09/27 00:04:00;;;;;;;6.60;5.80;;;;;;;18.48;67.67;101545.66;5002667;28;103912;-53
2021/09/27 00:06:26;;;;;;;7.15;5.90;;;;;;;18.48;67.71;101553.09;4997249;28;102643;-53
2021/09/27 00:08:52;;;;;;;6.30;5.53;;;;;;;18.47;68.00;101557.81;5004585;28;102575;-53
2021/09/27 00:11:23;;;;;;;6.70;5.93;;;;;;;18.49;67.47;101561.06;5009569;28;102512;-53
2021/09/27 00:13:53;;;;;;;6.63;5.93;;;;;;;18.48;68.04;101553.09;5016407;27;104354;-54
2021/09/27 00:16:21;;;;;;;6.30;4.85;;;;;;;18.47;67.60;101560.56;5025204;27;102461;-53
2021/09/27 00:18:48;;;;;;;7.25;5.82;;;;;;;18.48;67.62;101564.13;5028090;27;102799;-53
2021/09/27 00:21:18;;;;;;;7.82;6.00;;;;;;;18.47;67.86;101557.81;5023999;27;102475;-53
2021/09/27 00:23:46;;;;;;;6.68;5.45;;;;;;;18.47;67.70;101560.56;5026583;27;103730;-53
2021/09/27 00:26:13;;;;;;;6.00;5.35;;;;;;;18.46;67.73;101556.19;5027456;27;102608;-53
2021/09/27 00:28:39;;;;;;;5.97;5.30;;;;;;;18.47;67.80;101563.31;5027984;27;102579;-53
2021/09/27 00:31:06;;;;;;;6.93;5.20;;;;;;;18.46;68.02;101567.22;5029956;27;102457;-53
2021/09/27 00:33:33;;;;;;;5.72;5.13;;;;;;;18.47;67.78;101568.03;5025822;27;105215;-53
2021/09/27 00:36:00;;;;;;;6.20;5.28;;;;;;;18.47;67.76;101568.84;5007022;28;102168;-59
2021/09/27 00:38:28;;;;;;;6.85;5.47;;;;;;;18.47;67.75;101562.50;5008144;28;102320;-53
2021/09/27 00:41:06;;;;;;;6.63;5.10;;;;;;;18.47;68.10;101568.84;5009129;28;102728;-54
2021/09/27 00:43:34;;;;;;;7.30;5.90;;;;;;;18.47;67.84;101579.84;4998557;28;103912;-54
2021/09/27 00:46:03;;;;;;;7.53;5.00;;;;;;;18.48;67.92;101580.66;5001570;28;102578;-53
2021/09/27 00:48:30;;;;;;;6.10;5.50;;;;;;;18.46;67.89;101578.22;5027963;27;102509;-54
2021/09/27 00:51:01;;;;;;;7.47;5.55;;;;;;;18.46;68.11;101578.22;5024595;28;103241;-53
2021/09/27 00:53:33;;;;;;;5.55;5.00;;;;;;;18.45;68.17;101573.81;5021468;27;103886;-53
2021/09/27 00:56:00;;;;;;;6.35;5.30;;;;;;;18.45;67.78;101576.56;5025081;27;102434;-53
2021/09/27 00:58:28;;;;;;;5.93;5.18;;;;;;;18.45;67.83;101571.06;5028435;28;102572;-53
2021/09/27 01:00:56;;;;;;;5.57;4.82;;;;;;;18.45;67.93;101576.56;5027825;27;102471;-53
2021/09/27 01:03:23;;;;;;;7.82;5.75;;;;;;;18.44;68.11;101574.94;5020903;27;103879;-53
2021/09/27 01:05:59;;;;;;;6.93;5.95;;;;;;;18.46;67.79;101567.22;5024691;27;102343;-53
2021/09/27 01:08:42;;;;;;;6.93;5.13;;;;;;;18.45;67.92;101564.75;5034012;27;105303;-53
2021/09/27 01:11:25;;;;;;;5.78;5.13;;;;;;;18.44;68.17;101577.72;5023495;27;102608;-53
2021/09/27 01:14:13;;;;;;;6.90;4.90;;;;;;;18.44;68.30;101574.13;5013529;27;104056;-53
2021/09/27 01:16:52;;;;;;;6.43;4.60;;;;;;;18.45;67.84;101581.28;5021116;27;102144;-53
2021/09/27 01:19:48;;;;;;;6.75;5.45;;;;;;;18.44;67.83;101580.47;5021975;27;102217;-54
2021/09/27 01:22:31;;;;;;;5.95;5.10;;;;;;;18.44;67.98;101574.94;5022966;27;102071;-53
2021/09/27 01:25:22;;;;;;;5.05;4.50;;;;;;;18.43;68.23;101578.84;5023824;27;103767;-54
2021/09/27 01:28:17;;;;;;;5.57;5.05;;;;;;;18.44;68.46;101571.38;5024753;27;102465;-53
2021/09/27 01:31:16;;;;;;;5.35;4.82;;;;;;;18.43;67.87;101573.31;5022602;27;102406;-54
2021/09/27 01:33:51;;;;;;;5.45;4.95;;;;;;;18.43;68.02;101567.81;5002489;27;102512;-54
2021/09/27 01:36:24;;;;;;;5.25;4.63;;;;;;;18.44;68.36;101565.88;5021904;27;104120;-53
2021/09/27 01:39:00;;;;;;;6.38;4.95;;;;;;;18.43;68.04;101567.81;5028474;27;102542;-54
2021/09/27 01:41:34;;;;;;;5.45;4.95;;;;;;;18.43;68.16;101578.84;5032566;27;102160;-54
2021/09/27 01:44:13;;;;;;;6.78;5.10;;;;;;;18.42;68.40;101577.19;5013875;28;102189;-53
2021/09/27 01:46:44;;;;;;;;;;;;;;;18.42;68.26;101574.41;5026474;28;103880;-53
2021/09/27 01:49:20;;;;;;;5.38;4.50;;;;;;;18.42;68.15;101571.66;5022467;27;101986;-53
2021/09/27 01:51:53;;;;;;;5.50;4.70;;;;;;;18.42;67.82;101574.41;5003950;28;102622;-53
2021/09/27 01:54:29;;;;;;;6.25;4.85;;;;;;;18.42;68.26;101577.19;5008364;28;102180;-53
2021/09/27 01:57:03;;;;;;;6.15;4.80;;;;;;;18.41;68.41;101575.56;5004207;28;102393;-54
2021/09/27 01:59:39;;;;;;;5.40;4.43;;;;;;;18.42;68.47;101579.13;5017393;28;102447;-53
2021/09/27 02:02:11;;;;;;;4.70;4.30;;;;;;;18.41;68.30;101578.31;5028291;27;102339;-53
2021/09/27 02:04:52;;;;;;;5.32;4.28;;;;;;;18.41;68.41;101581.06;5030208;27;102101;-54
2021/09/27 02:07:21;;;;;;;4.95;4.32;;;;;;;18.41;68.50;101580.25;5018217;27;103686;-53
2021/09/27 02:10:00;;;;;;;5.75;4.72;;;;;;;18.40;68.10;101584.94;5021053;27;102283;-53
2021/09/27 02:12:31;;;;;;;5.10;4.37;;;;;;;18.41;68.25;101586.56;5027769;27;102492;-53
2021/09/27 02:15:05;;;;;;;5.60;4.20;;;;;;;18.41;68.29;101597.59;5019291;28;102686;-53
2021/09/27 02:17:40;;;;;;;5.65;4.53;;;;;;;18.39;68.26;101586.06;5003893;27;108038;-53
2021/09/27 02:20:14;;;;;;;5.60;4.22;;;;;;;18.39;67.90;101599.84;5025002;27;102805;-53
2021/09/27 02:22:47;;;;;;;6.07;4.03;;;;;;;18.40;67.90;101597.91;5028277;27;102123;-53
2021/09/27 02:25:16;;;;;;;5.25;4.43;;;;;;;18.39;68.02;101602.63;5027692;27;102397;-54
2021/09/27 02:27:46;;;;;;;4.68;4.28;;;;;;;18.39;68.25;101599.84;5021220;27;103878;-53
2021/09/27 02:30:15;;;;;;;5.30;4.80;;;;;;;18.39;68.00;101594.34;5031220;27;102585;-53
2021/09/27 02:32:47;;;;;;;5.25;4.45;;;;;;;18.39;68.21;101591.59;5030874;27;103060;-53
2021/09/27 02:35:20;;;;;;;4.47;3.60;;;;;;;18.38;68.32;101592.69;5025387;27;102224;-54
2021/09/27 02:37:55;;;;;;;4.57;4.18;;;;;;;18.37;68.12;101591.06;5024106;27;104064;-53
2021/09/27 02:40:27;;;;;;;4.85;4.35;;;;;;;18.37;68.09;101602.09;5028543;27;102068;-54
2021/09/27 02:42:57;;;;;;;4.93;4.43;;;;;;;18.38;68.60;101602.91;5026235;27;102194;-54
2021/09/27 02:45:25;;;;;;;5.07;4.53;;;;;;;18.37;68.25;101602.09;5034534;27;102185;-53
2021/09/27 02:47:58;;;;;;;4.97;3.60;;;;;;;18.37;68.16;101604.03;5026398;27;103855;-54
2021/09/27 02:50:30;;;;;;;4.78;4.13;;;;;;;18.38;68.45;101611.16;5018844;27;102142;-54
2021/09/27 02:52:58;;;;;;;4.70;4.13;;;;;;;18.37;68.09;101607.59;5022245;27;102260;-53
2021/09/27 02:55:35;;;;;;;4.22;3.75;;;;;;;18.37;68.48;101613.09;5025595;27;102624;-53
2021/09/27 02:58:14;;;;;;;5.78;4.38;;;;;;;18.37;68.44;101612.28;5015303;27;103911;-54
2021/09/27 03:00:51;;;;;;;5.00;3.92;;;;;;;18.36;68.05;101602.41;5026986;27;102338;-54
2021/09/27 03:03:29;;;;;;;4.88;4.38;;;;;;;18.37;68.11;101595.75;5015610;27;102535;-53
2021/09/27 03:06:07;;;;;;;5.18;4.28;;;;;;;18.36;68.16;101602.41;5020771;27;102255;-52
2021/09/27 03:09:00;;;;;;;3.93;3.53;;;;;;;18.36;68.27;101603.22;5022459;27;103567;-52
2021/09/27 03:12:11;;;;;;;4.60;3.75;;;;;;;18.36;68.14;101617.00;5036265;27;102407;-52
2021/09/27 03:15:02;;;;;;;4.45;3.88;;;;;;;18.35;68.20;101615.34;4977046;28;102435;-53
2021/09/27 03:17:34;;;;;;;4.78;4.28;;;;;;;18.36;68.13;101614.25;5020957;27;102435;-52
2021/09/27 03:20:34;;;;;;;4.35;3.95;;;;;;;18.36;67.99;101614.25;5020890;27;103908;-53
2021/09/27 03:23:06;;;;;;;4.47;3.95;;;;;;;18.35;68.41;101615.34;4998993;27;102175;-53
2021/09/27 03:25:44;;;;;;;3.83;3.47;;;;;;;18.35;67.98;101609.81;5021621;27;102657;-53
2021/09/27 03:28:19;;;;;;;4.10;3.65;;;;;;;18.35;68.25;101615.34;5037365;27;102338;-53
2021/09/27 03:30:58;;;;;;;4.15;3.63;;;;;;;18.35;68.43;101612.56;5016358;27;103018;-52
2021/09/27 03:33:36;;;;;;;5.30;4.20;;;;;;;18.35;68.39;101614.53;5008493;27;102450;-52
2021/09/27 03:36:16;;;;;;;4.18;3.75;;;;;;;18.35;68.37;101620.84;5024425;27;102283;-52
2021/09/27 03:38:51;;;;;;;4.00;3.60;;;;;;;18.35;68.54;101625.53;5024674;27;102415;-52
2021/09/27 03:41:27;;;;;;;4.68;3.67;;;;;;;18.35;68.00;101626.34;5023075;28;104058;-52
2021/09/27 03:44:02;;;;;;;4.57;3.55;;;;;;;18.36;68.45;101632.72;5025934;27;102016;-53
2021/09/27 03:46:37;;;;;;;4.18;3.78;;;;;;;18.34;68.28;101627.50;5025162;27;102856;-52
2021/09/27 03:49:09;;;;;;;5.78;3.88;;;;;;;18.35;68.34;101626.34;5019612;27;102747;-52
2021/09/27 03:51:41;;;;;;;4.10;3.70;;;;;;;18.34;68.79;101630.25;5031788;27;103860;-52
2021/09/27 03:54:15;;;;;;;4.47;3.63;;;;;;;18.33;68.53;101628.63;5029021;27;102569;-52
2021/09/27 03:56:48;;;;;;;4.22;3.65;;;;;;;18.34;68.44;101630.25;5028064;27;102578;-53
2021/09/27 03:59:37;;;;;;;4.03;3.60;;;;;;;18.34;68.54;101626.66;5040295;27;102891;-54
2021/09/27 04:02:10;;;;;;;4.45;3.85;;;;;;;18.34;68.06;101633.00;5021674;27;102461;-54
2021/09/27 04:04:53;;;;;;;3.75;2.97;;;;;;;18.33;68.49;101634.13;5009332;28;104028;-54
2021/09/27 04:07:29;;;;;;;3.55;3.25;;;;;;;18.34;68.05;101624.72;5024441;27;102614;-54
2021/09/27 04:10:11;;;;;;;3.78;3.47;;;;;;;18.34;68.47;101634.94;5027649;27;101329;-53
2021/09/27 04:12:53;;;;;;;4.03;3.35;;;;;;;18.33;68.43;101634.13;5032049;27;102322;-53
2021/09/27 04:15:34;;;;;;;5.20;3.85;;;;;;;18.34;68.51;101627.50;5007885;27;103885;-53
2021/09/27 04:18:12;;;;;;;3.90;3.55;;;;;;;18.34;68.16;101633.00;4993675;28;102141;-54
2021/09/27 04:20:52;;;;;;;4.53;3.30;;;;;;;18.34;68.20;101627.50;5002894;28;102883;-54
2021/09/27 04:23:27;;;;;;;4.32;3.60;;;;;;;18.34;68.02;101624.72;5027130;27;102362;-53
2021/09/27 04:26:02;;;;;;;3.72;3.42;;;;;;;18.33;68.74;101634.13;5006490;28;103975;-53
2021/09/27 04:28:51;;;;;;;3.40;3.10;;;;;;;18.34;68.64;101633.00;5003373;27;102642;-53
2021/09/27 04:31:32;;;;;;;4.47;3.67;;;;;;;18.33;68.36;101634.13;5005091;28;102430;-53
2021/09/27 04:34:13;;;;;;;3.67;3.05;;;;;;;18.35;68.52;101636.56;4994703;28;102371;-53
2021/09/27 04:36:44;;;;;;;7.10;3.10;;;;;;;18.34;68.65;101641.25;4996640;28;103713;-54
2021/09/27 04:39:13;;;;;;;4.15;3.00;;;;;;;18.34;68.32;101646.78;5002753;28;102565;-53
2021/09/27 04:41:56;;;;;;;4.15;3.50;;;;;;;18.35;68.69;101647.59;5000549;28;102202;-53
2021/09/27 04:44:39;;;;;;;4.30;3.13;;;;;;;18.34;68.18;101640.44;5003943;28;102535;-53
2021/09/27 04:47:14;;;;;;;3.40;3.10;;;;;;;18.34;68.12;101641.25;4995828;28;103434;-54
2021/09/27 04:50:02;;;;;;;3.80;3.08;;;;;;;18.34;68.61;101644.03;4995582;28;102125;-53
2021/09/27 04:52:44;;;;;;;3.75;3.30;;;;;;;18.34;68.61;101640.44;5002749;27;102361;-54
2021/09/27 04:55:36;;;;;;;4.32;3.63;;;;;;;18.35;68.42;101642.88;4998542;28;102705;-54
2021/09/27 04:58:20;;;;;;;4.88;3.13;;;;;;;18.35;68.44;101645.66;4993442;28;103880;-53
2021/09/27 05:01:02;;;;;;;3.88;3.30;;;;;;;18.34;68.73;101638.50;4999038;28;102610;-53
2021/09/27 05:03:59;;;;;;;4.28;3.65;;;;;;;18.34;68.69;101641.25;4992386;28;102712;-53
2021/09/27 05:07:00;;;;;;;3.65;3.30;;;;;;;18.35;68.84;101642.06;4988838;28;102580;-53
2021/09/27 05:09:39;;;;;;;3.88;3.05;;;;;;;18.35;68.59;101642.88;4976043;27;108441;-53
2021/09/27 05:12:37;;;;;;;3.30;3.00;;;;;;;18.34;68.46;101645.97;5006019;28;102398;-54
2021/09/27 05:15:29;;;;;;;4.20;3.60;;;;;;;18.35;68.69;101648.41;5001612;28;102003;-54
2021/09/27 05:18:17;;;;;;;3.75;3.00;;;;;;;18.36;68.60;101654.75;4986475;28;102307;-53
2021/09/27 05:21:03;;;;;;;3.58;3.10;;;;;;;18.36;68.45;101655.56;5007423;28;104018;-53
2021/09/27 05:23:39;;;;;;;4.30;3.33;;;;;;;18.37;68.25;101657.19;5012003;28;102317;-53
2021/09/27 05:26:42;;;;;;;3.97;2.90;;;;;;;18.36;68.81;101661.09;5011085;27;102486;-54
2021/09/27 05:29:30;;;;;;;3.85;3.00;;;;;;;18.36;68.40;101666.59;5008483;28;102073;-53
2021/09/27 05:32:15;;;;;;;3.60;3.10;;;;;;;18.36;68.66;101666.59;5006761;28;104770;-53
2021/09/27 05:34:55;;;;;;;4.35;3.17;;;;;;;18.37;68.62;101667.41;5010292;28;102532;-54
2021/09/27 05:37:36;;;;;;;4.32;3.30;;;;;;;18.37;68.17;101662.72;4993234;28;102514;-53
2021/09/27 05:40:17;;;;;;;3.53;3.22;;;;;;;18.37;68.87;101668.22;4988116;28;104705;-53
2021/09/27 05:42:57;;;;;;;3.33;3.03;;;;;;;18.36;68.51;101661.09;4987002;28;103895;-54
2021/09/27 05:45:53;;;;;;;4.95;3.25;;;;;;;18.37;68.28;101668.22;4982979;28;102222;-54
2021/09/27 05:48:45;;;;;;;3.90;2.80;;;;;;;18.36;68.91;101663.03;4985121;28;103558;-54
2021/09/27 05:51:39;;;;;;;4.47;3.15;;;;;;;18.37;68.57;101667.41;4983975;28;102344;-53
2021/09/27 05:54:14;;;;;;;3.42;3.05;;;;;;;18.36;68.68;101671.28;4981991;28;104144;-54
2021/09/27 05:56:51;;;;;;;3.60;3.20;;;;;;;18.36;68.79;101676.81;4979545;28;102134;-53
2021/09/27 05:59:28;;;;;;;3.72;3.08;;;;;;;18.36;68.95;101674.06;4986111;28;102585;-53
2021/09/27 06:02:02;;;;;;;4.35;3.00;;;;;;;18.35;68.67;101675.16;4986443;28;103256;-53
2021/09/27 06:04:43;;;;;;;3.40;3.03;;;;;;;18.35;68.50;101672.41;4984971;28;103646;-53
2021/09/27 06:07:33;;;;;;;3.03;2.80;;;;;;;18.34;68.81;101674.34;5063743;27;103311;-53
2021/09/27 06:10:22;;;;;;;3.97;3.28;;;;;;;18.34;68.69;101674.34;5049972;27;102425;-53
2021/09/27 06:12:59;;;;;;;3.13;2.80;;;;;;;18.34;68.50;101674.34;5046939;27;102343;-54
2021/09/27 06:15:34;;;;;;;3.20;2.50;;;;;;;18.34;68.34;101679.84;5036617;27;103847;-54
2021/09/27 06:18:48;;;;;;;3.90;3.08;;;;;;;18.33;68.43;101667.19;5035953;27;103115;-54
2021/09/27 06:22:01;;;;;;;3.67;3.00;;;;;;;18.34;68.49;101679.84;5039400;27;102469;-54
2021/09/27 06:24:39;;;;;;;5.78;3.33;;;;;;;18.34;68.34;101679.84;5031495;27;102470;-55
2021/09/27 06:27:14;;;;;;;3.60;2.97;;;;;;;18.34;68.37;101677.09;5039336;27;103436;-55
2021/09/27 06:29:49;;;;;;;4.40;3.55;;;;;;;18.34;68.32;101685.34;5036683;27;103035;-53
2021/09/27 06:32:25;;;;;;;4.38;2.67;;;;;;;18.35;68.48;101684.22;5034843;27;102253;-54
2021/09/27 08:59:05;;;;;;;74.97;10.55;;;;;;;18.21;67.50;101688.88;5065873;27;102436;-79
2021/09/27 09:01:40;;;;;;;44.97;7.80;;;;;;;18.26;67.82;101688.81;5058203;27;102416;-79
2021/09/27 09:04:15;;;;;;;30.55;5.75;;;;;;;18.34;67.52;101679.84;5053525;27;102758;-79
2021/09/27 09:06:47;;;;;;;25.00;4.97;;;;;;;18.42;67.78;101686.59;5060221;27;103365;-79
2021/09/27 09:09:22;;;;;;;20.40;3.80;;;;;;;18.51;67.22;101678.50;5056674;27;102348;-79
2021/09/27 09:11:53;;;;;;;19.13;4.00;;;;;;;18.58;66.61;101676.97;5059520;27;102607;-79
2021/09/27 09:14:33;;;;;;;13.85;3.20;;;;;;;18.64;66.75;101673.00;5061070;27;103816;-79
2021/09/27 09:17:05;;;;;;;19.42;3.70;;;;;;;18.73;66.69;101671.22;5061585;27;103362;-80
2021/09/27 09:19:33;;;;;;;15.23;3.63;;;;;;;18.81;66.25;101682.66;5062597;27;102497;-79
2021/09/27 09:22:05;;;;;;;7.20;2.58;;;;;;;18.87;66.24;101674.00;5082002;27;103707;-96
2021/09/27 09:24:37;;;;;;;8.70;2.47;;;;;;;18.93;65.53;101675.56;5077260;27;104021;-96
2021/09/27 09:27:07;;;;;;;10.02;2.60;;;;;;;19.02;65.67;101663.81;5073600;27;101239;-96
2021/09/27 09:29:38;;;;;;;4.78;2.30;;;;;;;19.08;64.43;101662.59;5068940;27;101766;-96
2021/09/27 09:32:13;;;;;;;7.03;2.45;;;;;;;19.15;64.69;101663.00;5077808;27;101588;-96
2021/09/27 09:34:42;;;;;;;11.07;2.75;;;;;;;19.22;64.89;101666.16;5061340;27;103085;-96
2021/09/27 09:39:54;;;;;;;6.68;2.10;;;;;;;19.34;63.84;101647.16;5020939;28;102386;-53
2021/09/27 09:42:31;;;;;;;3.63;1.90;;;;;;;19.41;63.51;101664.09;5027541;28;102649;-53
2021/09/27 09:45:15;;;;;;;5.00;1.80;;;;;;;19.51;63.28;101662.25;5016160;28;104051;-53
2021/09/27 09:47:43;;;;;;;2.60;1.63;;;;;;;19.55;63.12;101643.97;5016416;28;102097;-53
2021/09/27 09:50:14;;;;;;;5.78;1.58;;;;;;;19.62;62.90;101652.63;5019513;28;102513;-53
2021/09/27 09:52:44;;;;;;;4.20;1.80;;;;;;;19.70;62.38;101657.44;5018295;28;102508;-53
2021/09/27 09:55:19;;;;;;;6.57;1.95;;;;;;;19.75;62.50;101651.00;5018206;28;103742;-53
2021/09/27 09:57:57;;;;;;;6.07;1.77;;;;;;;19.81;62.15;101647.81;4997200;28;102469;-53
2021/09/27 10:00:42;;;;;;;7.82;1.83;;;;;;;19.87;62.04;101643.81;4991572;28;102669;-53
2021/09/27 10:03:11;;;;;;;3.28;1.42;;;;;;;19.90;61.22;101643.16;4989949;28;102970;-53
2021/09/27 10:05:41;;;;;;;5.00;1.40;;;;;;;19.97;61.34;101641.91;4996690;28;104029;-52
2021/09/27 10:08:16;;;;;;;3.25;1.60;;;;;;;20.02;60.86;101639.06;5000255;28;102439;-52
2021/09/27 10:10:56;;;;;;;5.85;1.70;;;;;;;20.08;60.94;101646.88;4982598;28;103999;-52
2021/09/27 10:13:42;;;;;;;4.05;1.30;;;;;;;20.15;60.65;101643.69;4983365;28;102188;-51
2021/09/27 10:16:14;;;;;;;3.10;1.70;;;;;;;20.20;60.56;101635.28;4989107;28;103934;-51
2021/09/27 10:18:46;;;;;;;4.47;1.55;;;;;;;20.26;60.05;101634.00;4982922;28;102654;-51
2021/09/27 10:21:28;;;;;;;4.70;1.60;;;;;;;20.32;60.02;101631.94;4976819;28;102541;-51
2021/09/27 10:23:59;;;;;;;13.40;2.30;;;;;;;20.38;59.75;101631.50;4976770;28;103400;-52
2021/09/27 10:26:32;;;;;;;7.50;1.80;;;;;;;20.44;60.09;101631.38;4977821;28;104409;-51
2021/09/27 10:29:05;;;;;;;3.63;1.58;;;;;;;20.46;59.92;101618.88;4998340;28;102063;-52
2021/09/27 10:31:36;;;;;;;7.60;1.70;;;;;;;20.49;59.56;101620.19;4979855;28;102649;-51
2021/09/27 10:34:09;;;;;;;7.32;1.75;;;;;;;20.52;59.46;101623.16;4979102;28;102297;-51
2021/09/27 10:36:56;;;;;;;8.32;2.10;;;;;;;20.55;59.18;101624.47;4977971;28;103800;-51
2021/09/27 10:39:24;;;;;;;8.45;2.08;;;;;;;20.60;59.29;101621.59;4983761;28;102348;-51
2021/09/27 10:42:00;;;;;;;6.15;1.40;;;;;;;20.65;59.26;101618.66;4977441;28;102318;-52
2021/09/27 10:44:31;;;;;;;3.25;1.48;;;;;;;20.69;58.87;101618.84;4989701;28;102401;-52
2021/09/27 10:47:14;;;;;;;8.07;1.48;;;;;;;20.70;58.80;101621.31;4985450;28;103940;-52
2021/09/27 10:49:47;;;;;;;4.82;1.35;;;;;;;20.72;58.59;101613.50;4978850;28;102808;-51
2021/09/27 10:52:26;;;;;;;4.15;1.20;;;;;;;20.74;58.66;101600.19;4976183;28;102368;-52
2021/09/27 10:54:59;;;;;;;5.97;1.50;;;;;;;20.77;58.25;101607.84;4979308;28;102730;-51
2021/09/27 10:57:48;;;;;;;4.85;1.40;;;;;;;20.80;58.00;101603.59;4981669;28;103700;-51
2021/09/27 11:00:28;;;;;;;2.83;1.17;;;;;;;20.82;57.95;101607.69;4976715;28;105921;-52
2021/09/27 11:03:04;;;;;;;3.88;1.10;;;;;;;20.82;57.86;101604.13;4985262;28;105422;-51
2021/09/27 11:05:50;;;;;;;2.65;1.20;;;;;;;20.85;57.91;101607.06;4976365;28;102501;-51
2021/09/27 11:08:36;;;;;;;5.05;1.48;;;;;;;20.87;57.76;101602.00;4976733;28;105596;-51
2021/09/27 11:11:17;;;;;;;1.83;1.20;;;;;;;20.90;57.42;101608.03;4983281;28;102292;-51
2021/09/27 11:13:48;;;;;;;2.88;1.15;;;;;;;20.92;57.48;101600.25;4973014;28;102865;-51
2021/09/27 11:16:18;;;;;;;2.88;1.20;;;;;;;20.96;57.49;101601.25;4972351;28;102307;-52
2021/09/27 11:19:29;;;;;;;1.98;1.20;;;;;;;20.99;57.39;101600.56;4983309;28;103968;-51
2021/09/27 11:21:56;;;;;;;6.25;1.58;;;;;;;20.99;56.88;101600.56;4982278;28;102554;-52
2021/09/27 11:24:49;;;;;;;4.13;1.63;;;;;;;21.01;56.98;101598.31;4983932;28;102081;-51
2021/09/27 11:27:31;;;;;;;3.67;1.60;;;;;;;21.02;56.90;101589.69;4975200;28;102384;-51
2021/09/27 11:30:24;;;;;;;3.83;2.00;;;;;;;21.03;56.59;101585.78;4979069;28;104241;-51
2021/09/27 11:32:57;;;;;;;3.03;1.52;;;;;;;21.06;56.64;101589.84;4981380;28;102755;-51
2021/09/27 11:35:38;;;;;;;6.95;2.38;;;;;;;21.07;56.63;101583.19;4980661;28;102928;-51
2021/09/27 11:38:31;;;;;;;3.20;1.60;;;;;;;21.09;56.41;101580.91;4977578;28;102275;-51
2021/09/27 11:41:21;;;;;;;3.83;1.60;;;;;;;21.10;56.49;101580.59;4981562;28;104165;-52
2021/09/27 11:43:55;;;;;;;4.63;1.58;;;;;;;21.11;56.27;101564.81;4982292;28;102083;-52
2021/09/27 11:46:28;;;;;;;2.70;1.48;;;;;;;21.13;56.24;101581.91;4978146;28;102220;-52
2021/09/27 11:49:03;;;;;;;3.17;1.20;;;;;;;21.15;55.88;101582.41;4977735;28;102356;-52
2021/09/27 11:51:38;;;;;;;4.28;1.80;;;;;;;21.15;55.81;101576.88;4970471;28;103928;-52
2021/09/27 11:54:32;;;;;;;4.15;1.60;;;;;;;21.17;55.70;101577.38;4977630;28;102621;-51
2021/09/27 11:57:19;;;;;;;4.55;1.33;;;;;;;21.17;55.49;101580.13;4976229;28;102420;-51
2021/09/27 11:59:56;;;;;;;2.35;1.25;;;;;;;21.19;55.61;101575.06;4979983;28;102469;-51
2021/09/27 12:02:32;;;;;;;4.15;1.67;;;;;;;21.20;55.40;101571.16;4977190;28;103000;-51
2021/09/27 12:05:12;;;;;;;3.58;1.48;;;;;;;21.22;55.17;101559.78;4976364;28;102491;-51
2021/09/27 12:07:44;;;;;;;4.07;1.40;;;;;;;21.22;55.03;101570.84;4970793;28;102411;-52
2021/09/27 12:10:16;;;;;;;2.65;1.35;;;;;;;21.24;54.80;101574.09;4984150;28;102592;-51
2021/09/27 12:12:52;;;;;;;3.20;1.37;;;;;;;21.25;55.16;101565.50;4977338;28;104089;-52
2021/09/27 12:15:24;;;;;;;1.80;1.30;;;;;;;21.26;54.97;101558.81;4981985;28;102319;-51
2021/09/27 12:17:56;;;;;;;4.13;1.35;;;;;;;21.26;54.66;101556.03;4983411;28;102442;-52
2021/09/27 12:20:37;;;;;;;2.67;1.20;;;;;;;21.27;54.57;101557.66;4983288;28;103544;-51
2021/09/27 12:23:10;;;;;;;2.53;1.20;;;;;;;21.27;54.75;101557.66;4980310;28;104058;-52
2021/09/27 12:25:39;;;;;;;2.20;1.00;;;;;;;21.29;54.53;101555.41;4978018;28;102539;-52
2021/09/27 12:28:10;;;;;;;2.58;1.48;;;;;;;21.32;54.66;101553.94;4973214;28;102531;-51
2021/09/27 12:30:41;;;;;;;2.05;1.00;;;;;;;21.30;54.42;101550.66;4980030;28;102480;-51
2021/09/27 12:33:11;;;;;;;2.00;1.00;;;;;;;21.31;54.42;101558.66;4981519;28;103916;-52
2021/09/27 12:35:44;;;;;;;2.40;0.90;;;;;;;21.33;54.13;101561.94;4986257;28;102631;-52
2021/09/27 12:38:11;;;;;;;3.08;1.08;;;;;;;21.34;54.11;101558.03;4983750;28;103153;-54
2021/09/27 12:40:52;;;;;;;1.85;1.02;;;;;;;21.34;54.25;101562.75;4985163;28;102549;-51
2021/09/27 12:43:23;;;;;;;2.90;1.35;;;;;;;21.35;53.87;101556.91;4979690;28;102932;-52
2021/09/27 12:45:54;;;;;;;2.40;1.30;;;;;;;21.37;54.37;101550.22;4985174;28;104003;-52
2021/09/27 12:48:27;;;;;;;2.03;0.95;;;;;;;21.37;54.00;101555.75;4980106;28;102325;-51
2021/09/27 12:51:01;;;;;;;3.20;0.93;;;;;;;21.37;53.63;101556.56;4978809;28;103331;-51
2021/09/27 12:53:36;;;;;;;1.70;0.98;;;;;;;21.39;53.68;101547.97;4981823;28;104893;-51
2021/09/27 12:56:05;;;;;;;2.22;1.08;;;;;;;21.40;53.61;101549.59;4974306;28;102394;-51
2021/09/27 12:58:35;;;;;;;1.25;0.70;;;;;;;21.41;53.68;101551.19;4971140;28;102566;-52
2021/09/27 13:50:59;;;;;;;1.77;1.00;;;;;;;20.49;55.65;101540.00;5028007;27;102774;-77
2021/09/27 13:53:34;;;;;;;1.73;1.08;;;;;;;20.45;56.49;101531.53;5032280;27;102947;-78
2021/09/27 13:56:03;;;;;;;2.05;1.20;;;;;;;20.45;56.53;101530.69;5021487;28;102754;-77
2021/09/27 13:58:50;;;;;;;1.38;1.10;;;;;;;20.42;56.55;101531.34;5020401;28;102419;-76
2021/09/27 14:01:19;;;;;;;2.40;1.20;;;;;;;20.39;56.76;101528.06;5025500;27;102696;-77
2021/09/27 14:03:46;;;;;;;4.43;1.00;;;;;;;20.36;56.67;101523.19;5029020;27;102443;-78
2021/09/27 14:06:17;;;;;;;2.10;1.13;;;;;;;20.33;56.64;101526.56;5029263;28;104026;-92
2021/09/27 14:08:44;;;;;;;3.85;1.65;;;;;;;20.31;56.52;101530.81;5024040;28;102060;-78
2021/09/27 14:11:11;;;;;;;1.70;1.10;;;;;;;20.29;56.69;101533.88;5016211;27;102058;-77
2021/09/27 14:13:41;;;;;;;5.07;1.42;;;;;;;20.26;55.73;101519.88;5028103;27;102050;-78
2021/09/27 14:16:10;;;;;;;2.63;1.17;;;;;;;20.21;56.70;101526.34;5026446;27;102739;-78
2021/09/27 14:18:46;;;;;;;2.90;1.50;;;;;;;20.19;56.28;101534.13;5025615;27;102551;-78
2021/09/27 14:21:18;;;;;;;2.67;1.50;;;;;;;20.16;56.25;101532.03;5021836;28;102610;-78
2021/09/27 14:23:46;;;;;;;3.92;1.70;;;;;;;20.13;56.58;101532.66;5023345;28;103471;-78
2021/09/27 14:26:13;;;;;;;2.58;1.27;;;;;;;20.12;55.88;101542.06;5020883;28;102718;-95
2021/09/27 14:28:40;;;;;;;3.35;1.55;;;;;;;20.08;56.32;101530.00;5052803;27;101941;-92
2021/09/27 14:31:10;;;;;;;2.80;1.30;;;;;;;20.05;56.02;101534.25;5036776;28;102160;-96
2021/09/27 14:33:38;;;;;;;2.55;1.20;;;;;;;20.01;55.97;101537.94;5035956;27;102235;-95
2021/09/27 14:36:06;;;;;;;2.10;1.40;;;;;;;20.00;56.71;101533.53;5043170;27;101952;-95
2021/09/27 14:38:35;;;;;;;5.25;1.30;;;;;;;19.98;56.38;101535.78;5005141;22;102172;-54
2021/09/27 14:41:04;;;;;;;2.78;1.23;;;;;;;19.96;56.55;101544.41;4982485;28;102606;-54
2021/09/27 14:43:32;;;;;;;;;;;;;;;19.93;56.40;101543.09;4977389;28;102099;-54
2021/09/27 14:46:00;;;;;;;2.92;1.88;;;;;;;19.92;56.50;101546.97;4977784;28;104281;-54
2021/09/27 14:48:28;;;;;;;2.58;2.20;;;;;;;19.89;56.78;101538.50;4982430;28;102347;-54
2021/09/27 14:50:56;;;;;;;3.97;3.05;;;;;;;19.87;56.27;101541.59;4957100;28;102341;-54
2021/09/27 14:53:25;;;;;;;5.47;3.65;;;;;;;19.84;56.17;101544.97;4963748;28;103015;-54
2021/09/27 14:55:55;;;;;;;4.32;3.28;;;;;;;19.82;56.78;101536.19;4962701;28;103934;-55
2021/09/27 14:58:24;;;;;;;5.60;3.47;;;;;;;19.81;56.80;101540.09;4960165;28;102518;-54
2021/09/27 15:00:53;;;;;;;5.97;3.15;;;;;;;19.79;56.86;101536.81;4955881;28;102817;-54
2021/09/27 15:03:23;;;;;;;6.18;2.50;;;;;;;19.78;56.72;101539.91;4946833;28;102291;-54
2021/09/27 15:05:50;;;;;;;5.40;2.15;;;;;;;19.75;56.45;101548.81;4946817;28;103733;-54
2021/09/27 15:08:17;;;;;;;3.45;2.22;;;;;;;19.72;56.19;101544.72;4948645;28;102174;-54
2021/09/27 15:10:45;;;;;;;5.50;2.03;;;;;;;19.69;56.29;101542.59;4947085;28;102867;-54
2021/09/27 15:13:14;;;;;;;2.70;1.90;;;;;;;19.67;56.30;101545.66;4949581;28;102602;-56
2021/09/27 15:15:42;;;;;;;2.75;1.90;;;;;;;19.65;56.26;101541.56;4937362;28;103048;-54